createdAt,value
2023-08-30T00:02:21.036Z,17.4
2023-08-30T00:07:42.342Z,17.4
2023-08-30T00:13:17.992Z,17.3
2023-08-30T00:18:38.635Z,17.3
2023-08-30T00:23:58.808Z,17.2
2023-08-30T00:29:20.005Z,17.2
2023-08-30T00:34:41.972Z,17.1
2023-08-30T00:50:45.335Z,16.9
2023-08-30T00:56:22.409Z,16.9
2023-08-30T01:02:01.203Z,16.9
2023-08-30T01:07:37.778Z,16.8
2023-08-30T01:12:59.072Z,16.8
2023-08-30T01:18:19.992Z,16.8
2023-08-30T01:23:56.353Z,16.8
2023-08-30T01:29:32.660Z,16.7
2023-08-30T01:35:23.616Z,16.7
2023-08-30T01:41:00.078Z,16.7
2023-08-30T01:46:51.771Z,16.7
2023-08-30T01:52:42.776Z,16.7
2023-08-30T01:58:18.932Z,16.6
2023-08-30T02:04:10.831Z,16.6
2023-08-30T02:10:01.745Z,16.6
2023-08-30T02:15:38.651Z,16.5
2023-08-30T02:21:31.638Z,16.4
2023-08-30T02:27:11.915Z,16.4
2023-08-30T02:32:48.447Z,16.3
2023-08-30T02:38:25.132Z,16.3
2023-08-30T02:44:03.804Z,16.3
2023-08-30T02:49:40.255Z,16.2
2023-08-30T02:55:16.676Z,16.1
2023-08-30T03:01:07.981Z,16.1
2023-08-30T03:07:01.700Z,16
2023-08-30T03:12:54.033Z,15.9
2023-08-30T03:18:45.979Z,15.9
2023-08-30T03:24:37.220Z,15.8
2023-08-30T03:30:29.521Z,15.8
2023-08-30T03:36:20.905Z,15.8
2023-08-30T03:41:57.125Z,15.7
2023-08-30T03:47:18.739Z,15.6
2023-08-30T03:52:40.361Z,15.6
2023-08-30T03:58:01.585Z,15.4
2023-08-30T04:03:41.417Z,15.4
2023-08-30T04:09:02.908Z,15.4
2023-08-30T04:14:41.322Z,15.4
2023-08-30T04:20:21.288Z,15.4
2023-08-30T04:25:42.704Z,15.6
2023-08-30T04:30:48.633Z,15.9
2023-08-30T04:36:25.442Z,16.4
2023-08-30T04:42:28.437Z,16.9
2023-08-30T04:48:22.206Z,17.1
2023-08-30T04:54:15.089Z,17.2
2023-08-30T05:00:06.714Z,17.3
2023-08-30T05:05:58.998Z,17.3
2023-08-30T05:11:51.347Z,17.3
2023-08-30T05:17:46.128Z,17.2
2023-08-30T05:23:22.014Z,17.2
2023-08-30T05:29:15.776Z,17.3
2023-08-30T05:35:07.795Z,18
2023-08-30T05:41:00.731Z,18.9
2023-08-30T05:46:52.465Z,19.9
2023-08-30T05:52:43.953Z,21.5
2023-08-30T05:58:35.370Z,23.8
2023-08-30T06:04:29.674Z,26.6
2023-08-30T06:10:20.908Z,31.8
2023-08-30T06:16:11.035Z,31.2
2023-08-30T06:22:03.091Z,31.8
2023-08-30T06:27:54.931Z,32.2
2023-08-30T06:33:44.649Z,32.9
2023-08-30T06:39:36.872Z,33.2
2023-08-30T06:45:30.112Z,33.2
2023-08-30T06:51:07.270Z,33.4
2023-08-30T06:56:44.022Z,33.4
2023-08-30T07:02:20.171Z,33.7
2023-08-30T07:07:56.298Z,34.2
2023-08-30T07:13:50.504Z,35.2
2023-08-30T07:19:38.271Z,35.8
2023-08-30T07:25:14.613Z,36.8
2023-08-30T07:30:53.040Z,37.8
2023-08-30T07:37:02.866Z,38.8
2023-08-30T07:42:59.497Z,39.9
2023-08-30T07:48:51.721Z,40.8
2023-08-30T07:55:00.786Z,41.1
2023-08-30T08:00:52.783Z,42.2
2023-08-30T08:06:57.553Z,43.2
2023-08-30T08:12:48.756Z,43.9
2023-08-30T08:18:41.343Z,44.4
2023-08-30T08:24:20.913Z,45.3
2023-08-30T08:30:12.852Z,46.1
2023-08-30T08:36:05.007Z,46.8
2023-08-30T08:42:10.248Z,47.4
2023-08-30T08:48:01.444Z,48
2023-08-30T08:54:01.481Z,48.6
2023-08-30T08:59:53.597Z,49.3
2023-08-30T09:06:05.553Z,49.8
2023-08-30T09:12:07.750Z,50.4
2023-08-30T09:17:59.667Z,51
2023-08-30T09:24:05.268Z,51.6
2023-08-30T09:29:57.266Z,52.1
2023-08-30T09:36:03.199Z,52.8
2023-08-30T09:41:54.593Z,53.3
2023-08-30T09:48:21.859Z,54
2023-08-30T10:31:30.957Z,54.6
2023-08-30T10:37:25.046Z,56.7
2023-08-30T10:43:14.936Z,56
2023-08-30T10:49:27.240Z,56.4
2023-08-30T10:55:20.271Z,55.8
2023-08-30T11:01:11.039Z,56.6
2023-08-30T11:12:58.322Z,58.4
2023-08-30T11:18:49.571Z,58.8
2023-08-30T11:24:25.128Z,59
2023-08-30T11:30:03.976Z,59.3
2023-08-30T11:35:40.141Z,59.6
2023-08-30T11:40:59.933Z,59.9
2023-08-30T11:46:50.162Z,60.2
2023-08-30T11:52:34.330Z,60.4
2023-08-30T11:58:09.730Z,60.7
2023-08-30T12:04:03.414Z,60.9
2023-08-30T12:09:54.969Z,61.2
2023-08-30T12:15:46.062Z,61.4
2023-08-30T12:21:23.574Z,61.6
2023-08-30T12:26:59.849Z,61.8
2023-08-30T12:32:49.919Z,61.9
2023-08-30T12:38:31.214Z,62.1
2023-08-30T12:43:51.109Z,61.9
2023-08-30T12:49:27.490Z,62.1
2023-08-30T12:55:20.314Z,62.1
2023-08-30T13:00:57.019Z,62.1
2023-08-30T13:06:49.721Z,62.2
2023-08-30T13:12:27.277Z,62.2
2023-08-30T13:18:03.299Z,62.1
2023-08-30T13:23:32.904Z,62.1
2023-08-30T13:29:10.532Z,62
2023-08-30T13:34:47.444Z,61.9
2023-08-30T13:40:23.276Z,61.8
2023-08-30T13:46:05.278Z,61.5
2023-08-30T13:51:41.804Z,61.3
2023-08-30T13:57:17.508Z,60.9
2023-08-30T14:03:10.569Z,60.6
2023-08-30T14:08:47.713Z,60
2023-08-30T14:14:42.705Z,59.8
2023-08-30T14:20:36.073Z,59
2023-08-30T14:26:30.523Z,57.4
2023-08-30T14:32:06.741Z,55
2023-08-30T14:38:01.697Z,52.6
2023-08-30T14:43:38.642Z,50.9
2023-08-30T14:49:47.372Z,49.1
2023-08-30T14:55:41.714Z,47.6
2023-08-30T15:01:35.973Z,46.4
2023-08-30T15:07:28.206Z,45.1
2023-08-30T15:13:22.847Z,43.7
2023-08-30T15:19:15.612Z,42.3
2023-08-30T15:25:07.263Z,40.9
2023-08-30T15:30:59.863Z,39.6
2023-08-30T15:36:53.373Z,38.5
2023-08-30T15:42:28.636Z,41.4
2023-08-30T15:48:21.794Z,39
2023-08-30T15:54:10.741Z,37.5
2023-08-30T16:00:01.605Z,36.5
2023-08-30T16:05:58.064Z,35.7
2023-08-30T16:11:49.263Z,35
2023-08-30T16:17:40.541Z,34.4
2023-08-30T16:23:34.168Z,33.8
2023-08-30T16:29:25.929Z,33.1
2023-08-30T16:35:17.959Z,32.6
2023-08-30T16:41:14.240Z,31.9
2023-08-30T16:47:06.441Z,31.3
2023-08-30T16:53:21.136Z,30.6
2023-08-30T16:59:16.011Z,30
2023-08-30T17:05:08.919Z,29.3
2023-08-30T17:11:00.290Z,28.4
2023-08-30T17:16:56.425Z,27.6
2023-08-30T17:22:32.458Z,27.1
2023-08-30T17:28:07.882Z,26.5
2023-08-30T17:33:46.025Z,26
2023-08-30T17:39:43.690Z,25.5
2023-08-30T17:45:25.883Z,25.1
2023-08-30T17:51:04.429Z,24.7
2023-08-30T17:56:55.669Z,24.3
2023-08-30T18:02:47.085Z,23.9
2023-08-30T18:08:25.130Z,23.6
2023-08-30T18:14:19.081Z,23.3
2023-08-30T18:19:55.056Z,22.9
2023-08-30T18:25:48.794Z,22.6
2023-08-30T18:31:09.951Z,22.4
2023-08-30T18:37:02.378Z,22.1
2023-08-30T18:43:06.499Z,21.8
2023-08-30T18:48:58.480Z,21.6
2023-08-30T18:54:36.431Z,21.4
2023-08-30T19:05:39.862Z,20.9
2023-08-30T19:11:33.556Z,20.8
2023-08-30T19:17:29.004Z,20.6
2023-08-30T19:23:22.470Z,20.3
2023-08-30T19:28:59.507Z,20.1
2023-08-30T19:34:39.109Z,19.9
2023-08-30T19:40:31.477Z,19.8
2023-08-30T19:46:24.152Z,19.6
2023-08-30T19:52:18.576Z,19.4
2023-08-30T19:58:11.577Z,19.2
2023-08-30T20:04:07.628Z,19.1
2023-08-30T20:10:00.618Z,18.9
2023-08-30T20:15:52.229Z,18.8
2023-08-30T20:21:46.491Z,18.6
2023-08-30T20:27:25.782Z,18.5
2023-08-30T20:33:02.365Z,18.4
2023-08-30T20:39:01.233Z,18.2
2023-08-30T20:45:04.749Z,18.1
2023-08-30T20:50:41.359Z,17.9
2023-08-30T20:56:32.146Z,17.7
2023-08-30T21:02:26.773Z,17.5
2023-08-30T21:08:19.118Z,17.3
2023-08-30T21:14:17.312Z,17.2
2023-08-30T21:25:31.919Z,16.9
2023-08-30T21:31:24.221Z,16.7
2023-08-30T21:37:18.640Z,16.6
2023-08-30T21:43:10.891Z,16.5
2023-08-30T21:49:02.928Z,16.4
2023-08-30T21:54:56.173Z,16.3
2023-08-30T22:00:47.367Z,16.3
2023-08-30T22:06:39.882Z,16.2
2023-08-30T22:12:32.230Z,16.2
2023-08-30T22:18:29.533Z,16.1
2023-08-30T22:24:05.148Z,16.1
2023-08-30T22:29:57.555Z,16.1
2023-08-30T22:35:51.009Z,16.1
2023-08-30T22:41:42.690Z,16
2023-08-30T22:47:20.287Z,15.9
2023-08-30T22:53:21.857Z,15.9
2023-08-30T22:59:13.396Z,15.9
2023-08-30T23:05:07.382Z,15.8
2023-08-30T23:10:43.520Z,15.8
2023-08-30T23:16:34.995Z,15.7
2023-08-30T23:22:12.226Z,15.7
2023-08-30T23:27:48.295Z,15.6
2023-08-30T23:33:38.862Z,15.6
2023-08-30T23:39:34.366Z,15.6
2023-08-30T23:45:26.821Z,15.6
2023-08-30T23:51:19.332Z,15.6
2023-08-30T23:56:56.019Z,15.5
